• Join FlightAware (Why Join?)
  • Login
  • US Flag 
08:49PM EDT


 

Airport Tracker/Info


-or-


 

Live Flight TrackerFlight Track Log ✈ UAL6044 ✈ 14-Apr-2013 ✈ KFAR - KDEN

Flight Track Log - Related Links

Times and Time Zones

All times are in EDT time to prevent confusion due to time zone crossing. See the UAL6044 flight status page for this flight to view local times or setup timezone preferences in your user account.

Time Position Orientation Groundspeed Altitude Reporting Facility
EDT Latitude Longitude Course Direction KTS MPH feet Rate Location/Type
09:21AM 46.9553 -96.8236 259° West 188 216 2,000  Level Minneapolis Center
09:22AM 46.9436 -96.9092 259° West 233 268 4,300 2,160 Climbing Minneapolis Center
09:23AM 46.8825 -96.9658 212° Southwest 256 295 6,400 2,460 Climbing Minneapolis Center
09:24AM 46.8178 -97.0294 214° Southwest 266 306 9,400 2,040 Climbing Minneapolis Center
09:25AM 46.7525 -97.0942 214° Southwest 296 341 10,600 1,740 Climbing Minneapolis Center
09:26AM 46.6756 -97.1703 214° Southwest 319 367 13,000 2,280 Climbing Minneapolis Center
09:27AM 46.5994 -97.2447 214° Southwest 316 364 15,300 1,920 Climbing Minneapolis Center
09:28AM 46.5289 -97.3142 214° Southwest 318 366 17,000 1,620 Climbing Minneapolis Center
09:29AM 46.4503 -97.3900 214° Southwest 331 381 18,600 1,320 Climbing Minneapolis Center
09:30AM 46.3850 -97.4539 214° Southwest 333 383 19,800 1,380 Climbing Minneapolis Center
09:31AM 46.3153 -97.5525 224° Southwest 350 403 21,500 1,980 Climbing Minneapolis Center
09:32AM 46.2386 -97.6689 226° Southwest 336 387 23,800 1,980 Climbing Minneapolis Center
09:33AM 46.1753 -97.7628 226° Southwest 328 377 25,600 1,620 Climbing Minneapolis Center
09:34AM 46.1125 -97.8556 226° Southwest 325 374 27,200 1,440 Climbing Minneapolis Center
09:35AM 46.0503 -97.9469 226° Southwest 321 369 28,600 1,320 Climbing Minneapolis Center
09:36AM 45.9889 -98.0381 226° Southwest 318 366 30,000 1,320 Climbing Minneapolis Center
09:37AM 45.9239 -98.1347 226° Southwest 318 366 31,400 1,320 Climbing Minneapolis Center
09:38AM 45.8628 -98.2247 226° Southwest 317 365 32,800 1,320 Climbing Minneapolis Center
09:39AM 45.8033 -98.3114 225° Southwest 309 356 34,100 1,200 Climbing Minneapolis Center
09:40AM 45.7453 -98.3967 226° Southwest 302 348 35,300 900 Climbing Minneapolis Center
09:41AM 45.6878 -98.4797 225° Southwest 296 341 36,000 300 Climbing Minneapolis Center
09:42AM 45.6286 -98.5669 226° Southwest 301 346 36,000  Level Minneapolis Center
09:43AM 45.5642 -98.6583 225° Southwest 319 367 36,000  Level Minneapolis Center
09:44AM 45.4964 -98.7553 225° Southwest 337 388 36,000  Level Minneapolis Center
09:45AM 45.4247 -98.8575 225° Southwest 355 409 36,000  Level Minneapolis Center
09:46AM 45.3517 -98.9617 225° Southwest 366 421 36,000  Level Minneapolis Center
09:47AM 45.2789 -99.0650 225° Southwest 369 425 36,000  Level Minneapolis Center
09:48AM 45.2050 -99.1697 225° Southwest 372 428 36,000  Level Minneapolis Center
09:49AM 45.1308 -99.2739 225° Southwest 373 429 36,000  Level Minneapolis Center
09:50AM 45.0417 -99.3986 225° Southwest 374 430 36,000  Level Minneapolis Center
09:51AM 44.9669 -99.5036 225° Southwest 375 432 36,000  Level Minneapolis Center
09:52AM 44.8911 -99.6089 225° Southwest 377 434 36,000  Level Minneapolis Center
09:54AM 44.8150 -99.7131 224° Southwest 376 433 36,000  Level Minneapolis Center
09:55AM 44.7400 -99.8175 225° Southwest 375 432 36,000  Level Minneapolis Center
09:56AM 44.6644 -99.9219 225° Southwest 378 435 36,000  Level Minneapolis Center
09:57AM 44.5883 -100.0250 224° Southwest 378 435 36,000  Level Minneapolis Center
09:58AM 44.5122 -100.1297 224° Southwest 381 438 36,000  Level Minneapolis Center
09:59AM 44.4350 -100.2344 224° Southwest 384 442 36,000  Level Minneapolis Center
10:00AM 44.3578 -100.3392 224° Southwest 385 443 36,000  Level Minneapolis Center
10:01AM 44.2800 -100.4442 224° Southwest 387 445 36,000  Level Minneapolis Center
10:02AM 44.2022 -100.5497 224° Southwest 389 448 36,000  Level Minneapolis Center
10:03AM 44.1211 -100.6550 223° Southwest 396 456 36,000  Level Minneapolis Center
10:04AM 44.0425 -100.7639 225° Southwest 398 458 36,000  Level Minneapolis Center
10:05AM 43.9461 -100.8914 224° Southwest 400 460 36,000  Level Minneapolis Center
10:06AM 43.8647 -100.9986 224° Southwest 401 461 36,000  Level Minneapolis Center
10:07AM 43.7828 -101.1056 223° Southwest 404 465 36,000  Level Minneapolis Center
10:08AM 43.7019 -101.2128 224° Southwest 403 464 36,000  Level Minneapolis Center
10:09AM 43.6194 -101.3183 223° Southwest 404 465 36,000  Level Minneapolis Center
10:10AM 43.5672 -101.3803 221° Southwest 408 470 36,000  Level Denver Center
10:11AM 43.4703 -101.4603 211° Southwest 407 468 36,000  Level Denver Center
10:12AM 43.3736 -101.5417 211° Southwest 407 468 36,000  Level Denver Center
10:13AM 43.2772 -101.6244 212° Southwest 408 470 36,000  Level Denver Center
10:14AM 43.1608 -101.7203 211° Southwest 408 470 36,000  Level Denver Center
10:15AM 43.0603 -101.8036 211° Southwest 413 475 36,000  Level Denver Center
10:16AM 42.9667 -101.8808 211° Southwest 411 473 36,000 -480 Level Denver Center
10:17AM 42.8722 -101.9583 211° Southwest 412 474 35,100 -1,080 Descending Denver Center
10:18AM 42.7614 -102.0511 212° Southwest 418 481 33,900 -1,140 Descending Denver Center
10:19AM 42.6661 -102.1278 211° Southwest 416 479 32,800 -960 Descending Denver Center
10:20AM 42.5747 -102.2031 211° Southwest 404 465 32,000 -420 Descending Denver Center
10:21AM 42.4692 -102.2892 211° Southwest 397 457 32,000  Level Denver Center
10:22AM 42.3781 -102.3633 211° Southwest 399 459 32,000  Level Denver Center
10:23AM 42.2717 -102.4486 211° Southwest 398 458 32,000  Level Denver Center
10:24AM 42.1786 -102.5239 211° Southwest 403 464 32,000  Level Denver Center
10:25AM 42.0869 -102.5978 211° Southwest 401 461 32,000  Level Denver Center
10:26AM 41.9797 -102.6836 211° Southwest 401 461 32,000  Level Denver Center
10:27AM 41.8875 -102.7561 210° Southwest 401 461 32,000  Level Denver Center
10:28AM 41.7958 -102.8294 211° Southwest 401 461 32,000  Level Denver Center
10:29AM 41.6878 -102.9144 210° Southwest 401 461 32,000  Level Denver Center
10:30AM 41.5939 -102.9889 211° Southwest 407 468 32,000  Level Denver Center
10:31AM 41.4844 -103.0750 211° Southwest 409 471 32,000  Level Denver Center
10:32AM 41.3900 -103.1481 210° Southwest 409 471 32,000 -240 Level Denver Center
10:33AM 41.2956 -103.2219 210° Southwest 410 472 31,600 -840 Descending Denver Center
10:34AM 41.1889 -103.3053 210° Southwest 399 459 30,300 -1,200 Descending Denver Center
10:35AM 41.0981 -103.3753 210° Southwest 393 452 29,200 -1,140 Descending Denver Center
10:36AM 40.9917 -103.4561 210° Southwest 394 453 28,000 -1,200 Descending Denver Center
10:37AM 40.8894 -103.5269 208° Southwest 405 466 26,800 -1,140 Descending Denver Center
10:38AM 40.7831 -103.5789 200° South 401 461 25,700 -1,140 Descending Denver Center
10:39AM 40.6814 -103.6311 201° Southwest 390 449 24,500 -1,260 Descending Denver Center
10:40AM 40.5856 -103.6922 206° Southwest 381 438 23,200 -1,620 Descending Denver Center
10:41AM 40.5144 -103.7886 226° Southwest 363 418 21,200 -1,980 Descending Denver Center
10:42AM 40.4439 -103.8856 226° Southwest 363 418 19,200 -2,160 Descending Denver Center
10:43AM 40.3822 -103.9708 227° Southwest 317 365 16,800 -2,280 Descending Denver Center
10:44AM 40.3172 -104.0478 222° Southwest 295 339 14,600 -1,860 Descending Denver Center
10:45AM 40.2556 -104.1114 218° Southwest 283 326 13,100 -840 Descending Denver Center
10:46AM 40.1703 -104.1150 182° South 309 356 13,000 -60 Descending Denver Center
10:47AM 40.0881 -104.1217 184° South 276 318 13,000 -240 Level Denver Center
10:48AM 40.0217 -104.1389 191° South 249 287 12,600 -780 Descending Denver Center
10:49AM 39.9694 -104.1858 215° Southwest 237 273 11,500 -1,080 Descending Denver Center
10:50AM 39.9433 -104.2639 246° West 220 253 10,400 -1,020 Descending Denver Center
10:51AM 39.9208 -104.3347 248° West 213 245 9,500 -960 Descending Denver Center
10:53AM 39.8994 -104.3956 245° Southwest 185 213 8,500 -1,020 Descending Denver Center
10:53AM 39.9000 -104.4167 272° West 170 196 8,100 -960 Descending Denver TRACON
10:54AM 39.8833 -104.4833 252° West 173 199 7,200 -780 Descending Denver TRACON
10:55AM 39.8833 -104.5333 270° West 149 171 6,700 -660 Descending Denver TRACON
10:56AM 39.8833 -104.5667 270° West 128 147 6,000 -720 Descending Denver TRACON
10:57AM 39.8833 -104.6167 270° West 136 157 5,400 -720 Descending Denver TRACON
10:59AM 39.8617 -104.6732 167° South  Level Estimated
11:06AM 39.8617 -104.6732 North  Level Estimated
11:07AM 39.8617 -104.6732 North  Level Estimated
11:08AM 39.8617 -104.6732 North  Level Estimated